Time;durP1;ratioP1;P1;durP2;ratioP2;P2;SDS_P1;SDS_P2;PMS_P1;PMS_P2;Temp;Humidity;BMP_temperature;BMP_pressure;BME280_temperature;BME280_humidity;BME280_pressure;Samples;Min_cycle;Max_cycle;Signal;HPM_P1;HPM_P2
2022/10/30 00:00:47;;;;;;;14.38;7.03;;;16.70;99.90;;;;;;5029421;28;20225;-78
2022/10/30 00:03:15;;;;;;;13.30;6.30;;;16.70;99.90;;;;;;5031216;28;20211;-78
2022/10/30 00:05:43;;;;;;;17.42;6.47;;;16.70;99.90;;;;;;5029311;28;20199;-78
2022/10/30 00:08:11;;;;;;;16.10;7.15;;;16.60;99.90;;;;;;5031668;28;20226;-78
2022/10/30 00:10:40;;;;;;;13.07;7.10;;;16.60;99.90;;;;;;5029944;28;20195;-78
2022/10/30 00:13:07;;;;;;;14.00;6.78;;;16.60;99.90;;;;;;5031015;28;20235;-78
2022/10/30 00:15:35;;;;;;;10.75;7.40;;;16.50;99.90;;;;;;5029355;28;20207;-77
2022/10/30 00:18:01;;;;;;;13.57;7.18;;;16.50;99.90;;;;;;5031346;28;20232;-77
2022/10/30 00:20:29;;;;;;;13.90;7.55;;;16.50;99.90;;;;;;5030866;28;20199;-78
2022/10/30 00:22:55;;;;;;;13.60;7.18;;;16.50;99.90;;;;;;5029169;28;20255;-78
2022/10/30 00:25:22;;;;;;;15.48;6.90;;;16.50;99.90;;;;;;5031271;28;20202;-77
2022/10/30 00:27:50;;;;;;;14.13;6.90;;;16.50;99.90;;;;;;5029587;28;20505;-77
2022/10/30 00:30:17;;;;;;;15.10;7.88;;;16.50;99.90;;;;;;5030804;28;20217;-77
2022/10/30 00:32:44;;;;;;;14.73;7.53;;;16.50;99.90;;;;;;5015891;28;20920;-78
2022/10/30 00:35:11;;;;;;;14.25;7.25;;;16.50;99.90;;;;;;5031896;28;20203;-78
2022/10/30 00:37:38;;;;;;;12.25;6.75;;;16.50;99.90;;;;;;5031813;28;20207;-78
2022/10/30 00:40:06;;;;;;;17.65;7.68;;;16.50;99.90;;;;;;5034718;28;20251;-77
2022/10/30 00:42:33;;;;;;;17.55;7.72;;;16.40;99.90;;;;;;5034696;28;20565;-79
2022/10/30 00:45:01;;;;;;;16.98;7.45;;;16.40;99.90;;;;;;5028470;28;20500;-77
2022/10/30 00:47:32;;;;;;;19.60;8.32;;;16.40;99.90;;;;;;5033685;28;20217;-77
2022/10/30 00:50:05;;;;;;;14.82;7.25;;;16.40;99.90;;;;;;5032653;28;20199;-77
2022/10/30 00:52:35;;;;;;;11.15;6.80;;;16.40;99.90;;;;;;5034934;28;20429;-78
2022/10/30 00:55:06;;;;;;;12.23;6.82;;;16.40;99.90;;;;;;5030689;28;20226;-78
2022/10/30 00:57:35;;;;;;;13.68;7.43;;;16.40;99.90;;;;;;5034481;28;20225;-77
2022/10/30 01:00:06;;;;;;;15.85;7.40;;;16.30;99.90;;;;;;5031311;28;20539;-78
2022/10/30 01:02:32;;;;;;;11.75;7.20;;;16.30;99.90;;;;;;5033808;28;20183;-77
2022/10/30 01:05:00;;;;;;;14.35;6.88;;;16.20;99.90;;;;;;5033769;28;20218;-78
2022/10/30 01:07:27;;;;;;;14.10;7.30;;;16.20;99.90;;;;;;5033828;28;20206;-78
2022/10/30 01:09:54;;;;;;;9.82;7.13;;;16.20;99.90;;;;;;5031919;28;20205;-77
2022/10/30 01:12:21;;;;;;;19.48;8.02;;;16.10;99.90;;;;;;5034459;28;20194;-78
2022/10/30 01:14:55;;;;;;;11.68;6.82;;;16.10;99.90;;;;;;5032829;28;20217;-77
2022/10/30 01:17:46;;;;;;;14.57;7.60;;;16.10;99.90;;;;;;5032551;28;20211;-77
2022/10/30 01:20:37;;;;;;;11.63;7.10;;;16.00;99.90;;;;;;5034247;28;20195;-77
2022/10/30 01:23:16;;;;;;;11.70;6.93;;;16.00;99.90;;;;;;5013561;28;20232;-77
2022/10/30 01:25:52;;;;;;;11.77;7.57;;;15.90;99.90;;;;;;5014335;28;20192;-77
2022/10/30 01:28:36;;;;;;;11.38;6.60;;;15.90;99.90;;;;;;5013925;28;20265;-77
2022/10/30 01:31:15;;;;;;;18.58;8.30;;;15.80;99.90;;;;;;5025819;28;20217;-78
2022/10/30 01:34:00;;;;;;;12.25;7.55;;;15.80;99.90;;;;;;5014354;28;20191;-78
2022/10/30 01:36:37;;;;;;;13.30;7.18;;;15.80;99.90;;;;;;5013650;28;20204;-78
2022/10/30 01:39:10;;;;;;;16.25;8.00;;;15.70;99.90;;;;;;5014493;28;20221;-77
2022/10/30 01:41:37;;;;;;;17.63;7.97;;;15.70;99.90;;;;;;5014191;28;20195;-78
2022/10/30 01:44:09;;;;;;;16.50;9.18;;;15.70;99.90;;;;;;5028295;28;20280;-78
2022/10/30 01:46:46;;;;;;;15.77;8.50;;;15.70;99.90;;;;;;5032390;28;20519;-77
2022/10/30 01:49:30;;;;;;;17.17;8.55;;;15.70;99.90;;;;;;5031647;28;20216;-77
2022/10/30 01:52:06;;;;;;;13.15;7.97;;;15.70;99.90;;;;;;5033126;28;20201;-78
2022/10/30 01:54:41;;;;;;;14.68;8.10;;;15.60;99.90;;;;;;5031707;28;20217;-77
2022/10/30 01:57:16;;;;;;;18.42;9.23;;;15.60;99.90;;;;;;5033134;28;20200;-77
2022/10/30 01:59:47;;;;;;;17.38;8.55;;;15.60;99.90;;;;;;5031574;28;20210;-77
2022/10/30 02:02:14;;;;;;;18.13;9.30;;;15.60;99.90;;;;;;5033567;28;20190;-77
2022/10/30 02:04:43;;;;;;;19.30;10.18;;;15.60;99.90;;;;;;5030296;28;20213;-77
2022/10/30 02:07:11;;;;;;;16.42;9.45;;;15.60;99.90;;;;;;5033365;28;20218;-77
2022/10/30 02:09:39;;;;;;;21.30;10.85;;;15.60;99.90;;;;;;5033227;28;20802;-77
2022/10/30 02:12:07;;;;;;;19.48;9.52;;;15.60;99.90;;;;;;5031269;28;20313;-77
2022/10/30 02:14:38;;;;;;;16.88;10.45;;;15.60;99.90;;;;;;5032149;28;20234;-77
2022/10/30 02:17:08;;;;;;;21.88;10.27;;;15.60;99.90;;;;;;5030940;28;20203;-77
2022/10/30 02:19:35;;;;;;;20.98;10.13;;;15.60;99.90;;;;;;5032746;28;20271;-78
2022/10/30 02:22:04;;;;;;;16.52;10.00;;;15.60;99.90;;;;;;5031093;28;20503;-77
2022/10/30 02:24:32;;;;;;;18.73;10.45;;;15.60;99.90;;;;;;5032538;28;20761;-77
2022/10/30 02:26:58;;;;;;;17.77;9.77;;;15.60;99.90;;;;;;5030652;28;20611;-77
2022/10/30 02:29:25;;;;;;;19.48;10.43;;;15.60;99.90;;;;;;5032907;28;20250;-77
2022/10/30 02:31:52;;;;;;;18.42;11.18;;;15.60;99.90;;;;;;5026007;28;20204;-77
2022/10/30 02:34:20;;;;;;;13.82;9.07;;;15.60;99.90;;;;;;5030269;28;20213;-77
2022/10/30 02:36:47;;;;;;;19.38;11.77;;;15.60;99.90;;;;;;5032909;28;20199;-77
2022/10/30 02:39:15;;;;;;;18.05;10.63;;;15.60;99.90;;;;;;5030267;28;20229;-77
2022/10/30 02:41:42;;;;;;;17.33;10.90;;;15.60;99.90;;;;;;5032559;28;20202;-76
2022/10/30 02:44:09;;;;;;;21.35;12.18;;;15.60;99.90;;;;;;5031225;28;20297;-77
2022/10/30 02:46:36;;;;;;;22.10;11.27;;;15.60;99.90;;;;;;5031896;28;20275;-77
2022/10/30 02:49:03;;;;;;;23.38;11.23;;;15.60;99.90;;;;;;5030558;28;20539;-77
2022/10/30 02:51:31;;;;;;;24.88;10.27;;;15.60;99.90;;;;;;5031766;28;20194;-77
2022/10/30 02:53:58;;;;;;;20.80;10.68;;;15.60;99.90;;;;;;5031227;28;20227;-77
2022/10/30 02:56:27;;;;;;;18.70;10.80;;;15.60;99.90;;;;;;5031094;28;20202;-77
2022/10/30 02:58:54;;;;;;;18.00;9.98;;;15.50;99.90;;;;;;5031402;28;20219;-77
2022/10/30 03:01:21;;;;;;;18.10;10.80;;;15.50;99.90;;;;;;5030311;28;20495;-77
2022/10/30 03:03:48;;;;;;;20.75;11.38;;;15.50;99.90;;;;;;5031745;28;20222;-77
2022/10/30 03:06:17;;;;;;;17.27;11.40;;;15.50;99.90;;;;;;5030197;28;20201;-76
2022/10/30 03:08:44;;;;;;;19.52;10.30;;;15.50;99.90;;;;;;5031482;28;20198;-77
2022/10/30 03:11:13;;;;;;;23.63;11.07;;;15.50;99.90;;;;;;5030377;28;20198;-77
2022/10/30 03:13:43;;;;;;;18.40;9.80;;;15.50;99.90;;;;;;5032052;28;20834;-77
2022/10/30 03:16:11;;;;;;;16.67;10.07;;;15.50;99.90;;;;;;5030086;28;20218;-76
2022/10/30 03:18:39;;;;;;;16.02;9.77;;;15.50;99.90;;;;;;5031691;28;20237;-77
2022/10/30 03:21:07;;;;;;;22.00;10.38;;;15.40;99.90;;;;;;5031645;28;20588;-77
2022/10/30 03:23:34;;;;;;;15.57;9.65;;;15.40;99.90;;;;;;5029606;28;20243;-78
2022/10/30 03:26:01;;;;;;;17.75;10.38;;;15.40;99.90;;;;;;5032131;28;20603;-77
2022/10/30 03:28:30;;;;;;;16.40;9.57;;;15.40;99.90;;;;;;5029043;28;20198;-77
2022/10/30 03:31:03;;;;;;;14.65;9.52;;;15.30;99.90;;;;;;5032106;28;20352;-76
2022/10/30 03:33:30;;;;;;;19.52;11.07;;;15.30;99.90;;;;;;5029484;28;20210;-77
2022/10/30 03:35:57;;;;;;;17.67;10.85;;;15.30;99.90;;;;;;5031155;28;20199;-76
2022/10/30 03:38:23;;;;;;;15.27;10.02;;;15.30;99.90;;;;;;5030160;28;22225;-76
2022/10/30 03:40:51;;;;;;;17.15;10.02;;;15.20;99.90;;;;;;5031459;28;20222;-76
2022/10/30 03:43:18;;;;;;;19.20;11.45;;;15.10;99.90;;;;;;5031043;28;20203;-77
2022/10/30 03:45:49;;;;;;;12.77;9.05;;;15.10;99.90;;;;;;5030709;28;20253;-77
2022/10/30 03:48:19;;;;;;;15.15;9.68;;;15.10;99.90;;;;;;5031426;28;20293;-77
2022/10/30 03:50:46;;;;;;;19.75;11.55;;;15.00;99.90;;;;;;5031215;28;20373;-76
2022/10/30 03:53:14;;;;;;;14.80;9.93;;;14.90;99.90;;;;;;5031174;28;20199;-77
2022/10/30 03:55:41;;;;;;;11.57;9.30;;;14.90;99.90;;;;;;5030070;28;20203;-77
2022/10/30 03:58:08;;;;;;;14.13;9.57;;;14.90;99.90;;;;;;5031225;28;20209;-77
2022/10/30 04:00:36;;;;;;;11.50;8.23;;;14.80;99.90;;;;;;5029452;28;20214;-77
2022/10/30 04:03:06;;;;;;;9.98;8.50;;;14.80;99.90;;;;;;5031023;28;20229;-77
2022/10/30 04:05:35;;;;;;;14.88;9.27;;;14.70;99.90;;;;;;5028690;28;20206;-78
2022/10/30 04:08:06;;;;;;;10.27;7.88;;;14.70;99.90;;;;;;5031558;28;20829;-77
2022/10/30 04:10:33;;;;;;;15.20;8.65;;;14.60;99.90;;;;;;5029828;28;20198;-77
2022/10/30 04:13:01;;;;;;;12.40;9.00;;;14.60;99.90;;;;;;5015795;28;20230;-77
2022/10/30 04:15:28;;;;;;;11.90;8.38;;;14.50;99.90;;;;;;5028085;28;20218;-77
2022/10/30 04:17:55;;;;;;;10.05;8.68;;;14.50;99.90;;;;;;5033020;28;20203;-77
2022/10/30 04:20:24;;;;;;;12.05;8.43;;;14.40;99.90;;;;;;5035197;28;20229;-77
2022/10/30 04:22:56;;;;;;;12.85;8.80;;;14.40;99.90;;;;;;5032518;28;20607;-77
2022/10/30 04:25:23;;;;;;;11.35;8.77;;;14.40;99.90;;;;;;5034566;28;20202;-77
2022/10/30 04:27:51;;;;;;;12.07;8.98;;;14.30;99.90;;;;;;5033553;28;20226;-77
2022/10/30 04:30:20;;;;;;;12.13;9.20;;;14.30;99.90;;;;;;5035067;28;20194;-77
2022/10/30 04:32:47;;;;;;;13.45;10.00;;;14.30;99.90;;;;;;5032336;28;20470;-76
2022/10/30 04:35:14;;;;;;;11.60;8.88;;;14.30;99.90;;;;;;5035195;28;20197;-79
2022/10/30 04:37:41;;;;;;;13.57;9.33;;;14.20;99.90;;;;;;5034740;28;20199;-77
2022/10/30 04:40:10;;;;;;;11.82;9.57;;;14.20;99.90;;;;;;5031589;28;20222;-77
2022/10/30 04:42:37;;;;;;;14.90;8.90;;;14.10;99.90;;;;;;5034112;28;20212;-77
2022/10/30 04:45:05;;;;;;;14.50;9.40;;;14.10;99.90;;;;;;5033502;28;20206;-76
2022/10/30 04:47:31;;;;;;;13.37;8.77;;;14.10;99.90;;;;;;5034345;28;20217;-78
2022/10/30 04:49:58;;;;;;;10.95;8.60;;;14.10;99.90;;;;;;5033303;28;20194;-76
2022/10/30 04:52:25;;;;;;;12.70;9.10;;;14.10;99.90;;;;;;5034224;28;20198;-77
2022/10/30 04:54:52;;;;;;;11.85;8.70;;;14.10;99.90;;;;;;5031361;28;20229;-77
2022/10/30 04:57:20;;;;;;;11.90;8.45;;;14.00;99.90;;;;;;5035007;28;20294;-77
2022/10/30 04:59:47;;;;;;;13.80;8.82;;;14.00;99.90;;;;;;5033070;28;20241;-77
2022/10/30 05:02:14;;;;;;;12.77;8.80;;;13.90;99.90;;;;;;5032734;28;20230;-77
2022/10/30 05:04:41;;;;;;;10.93;8.60;;;13.90;99.90;;;;;;5034748;28;20608;-77
2022/10/30 05:07:08;;;;;;;14.43;9.60;;;13.90;99.90;;;;;;5032350;28;20477;-77
2022/10/30 05:09:34;;;;;;;12.45;9.90;;;13.90;99.90;;;;;;5034328;28;20206;-77
2022/10/30 05:12:01;;;;;;;18.10;10.87;;;13.90;99.90;;;;;;5031697;28;20638;-77
2022/10/30 05:14:30;;;;;;;15.83;9.90;;;13.90;99.90;;;;;;5033783;28;20199;-77
2022/10/30 05:16:57;;;;;;;20.57;11.30;;;13.90;99.90;;;;;;5032668;28;20570;-77
2022/10/30 05:19:24;;;;;;;15.93;11.07;;;13.80;99.90;;;;;;5034318;28;20233;-77
2022/10/30 05:21:52;;;;;;;11.00;9.13;;;13.80;99.90;;;;;;5032241;28;20207;-76
2022/10/30 05:24:19;;;;;;;16.90;10.30;;;13.80;99.90;;;;;;5032333;28;20240;-77
2022/10/30 05:26:46;;;;;;;11.97;9.30;;;13.80;99.90;;;;;;5032735;28;20203;-76
2022/10/30 05:29:12;;;;;;;15.17;10.07;;;13.80;99.90;;;;;;5031888;28;20199;-77
2022/10/30 05:31:41;;;;;;;14.50;9.73;;;13.80;99.90;;;;;;5033939;28;20666;-77
2022/10/30 05:34:07;;;;;;;16.25;10.35;;;13.80;99.90;;;;;;5032021;28;20206;-77
2022/10/30 05:36:34;;;;;;;15.17;10.30;;;13.80;99.90;;;;;;5033319;28;20505;-77
2022/10/30 05:39:01;;;;;;;15.27;10.07;;;13.80;99.90;;;;;;5032301;28;20213;-77
2022/10/30 05:41:28;;;;;;;16.50;10.80;;;13.80;99.90;;;;;;5033553;28;20218;-77
2022/10/30 05:43:55;;;;;;;17.52;12.10;;;13.80;99.90;;;;;;5033751;28;20202;-77
2022/10/30 05:46:22;;;;;;;18.97;12.17;;;13.70;99.90;;;;;;5031656;28;20202;-77
2022/10/30 05:48:50;;;;;;;18.73;12.53;;;13.70;99.90;;;;;;5033338;28;20190;-77
2022/10/30 05:51:17;;;;;;;18.23;12.43;;;13.70;99.90;;;;;;5031727;28;20209;-77
2022/10/30 05:53:44;;;;;;;17.93;11.67;;;13.70;99.90;;;;;;5057612;22;20865;-77
2022/10/30 05:56:11;;;;;;;17.30;11.97;;;13.70;99.90;;;;;;5034218;28;20213;-77
2022/10/30 05:58:38;;;;;;;15.43;11.43;;;13.70;99.90;;;;;;5033483;28;20201;-78
2022/10/30 06:01:06;;;;;;;15.33;10.80;;;13.60;99.90;;;;;;5037461;28;20225;-77
2022/10/30 06:03:33;;;;;;;13.67;11.20;;;13.60;99.90;;;;;;5052528;28;20190;-78
2022/10/30 06:06:01;;;;;;;18.00;11.37;;;13.60;99.90;;;;;;5053204;28;20229;-77
2022/10/30 06:08:28;;;;;;;15.27;11.00;;;13.60;99.90;;;;;;5051878;28;20237;-77
2022/10/30 06:10:55;;;;;;;16.30;11.47;;;13.60;99.90;;;;;;5052828;28;20204;-77
2022/10/30 06:13:22;;;;;;;21.20;12.33;;;13.60;99.90;;;;;;5051289;28;20206;-77
2022/10/30 06:15:49;;;;;;;14.90;11.40;;;13.60;99.90;;;;;;5053039;28;20205;-77
2022/10/30 06:18:16;;;;;;;15.20;11.57;;;13.60;99.90;;;;;;5051578;28;20202;-77
2022/10/30 06:20:43;;;;;;;18.30;12.63;;;13.60;99.90;;;;;;5053290;28;20217;-77
2022/10/30 06:23:11;;;;;;;16.60;11.90;;;13.60;99.90;;;;;;5043230;28;20608;-77
2022/10/30 06:25:38;;;;;;;16.60;13.00;;;13.50;99.90;;;;;;5052472;28;20591;-78
2022/10/30 06:28:05;;;;;;;20.23;12.30;;;13.60;99.90;;;;;;5046239;28;20213;-76
2022/10/30 06:30:32;;;;;;;27.60;12.57;;;13.50;99.90;;;;;;5051558;28;20213;-77
2022/10/30 06:33:00;;;;;;;23.83;13.80;;;13.60;99.90;;;;;;5052162;28;20198;-77
2022/10/30 06:35:28;;;;;;;18.60;11.83;;;13.60;99.90;;;;;;5051486;28;20293;-78
2022/10/30 06:37:57;;;;;;;19.87;11.17;;;13.50;99.90;;;;;;5052302;28;20255;-78
2022/10/30 06:40:26;;;;;;;16.13;11.47;;;13.50;99.90;;;;;;5040464;28;20219;-77
2022/10/30 06:42:54;;;;;;;19.75;13.23;;;13.50;99.90;;;;;;5032767;28;20197;-77
2022/10/30 06:45:22;;;;;;;15.60;12.13;;;13.50;99.90;;;;;;5036755;28;20206;-78
2022/10/30 06:47:49;;;;;;;15.67;11.30;;;13.40;99.90;;;;;;5066443;28;20201;-78
2022/10/30 06:50:18;;;;;;;15.13;9.77;;;13.40;99.90;;;;;;5063085;28;20194;-78
2022/10/30 06:52:45;;;;;;;19.17;12.73;;;13.50;99.90;;;;;;5056050;28;20228;-78
2022/10/30 06:55:12;;;;;;;17.43;12.60;;;13.50;99.90;;;;;;5052495;28;20214;-77
2022/10/30 06:57:41;;;;;;;19.70;11.83;;;13.50;99.90;;;;;;5050404;28;20212;-79
2022/10/30 07:00:09;;;;;;;20.10;13.10;;;13.50;99.90;;;;;;5047989;28;20241;-78
2022/10/30 07:02:36;;;;;;;20.00;13.20;;;13.50;99.90;;;;;;5043872;28;20633;-77
2022/10/30 07:05:03;;;;;;;18.97;12.30;;;13.50;99.90;;;;;;5052017;28;20204;-77
2022/10/30 07:07:30;;;;;;;23.33;14.17;;;13.50;99.90;;;;;;5042840;28;20663;-77
2022/10/30 07:09:57;;;;;;;19.70;13.67;;;13.60;99.90;;;;;;5032378;28;20199;-78
2022/10/30 07:12:23;;;;;;;19.90;12.27;;;13.60;99.90;;;;;;5034523;28;20701;-78
2022/10/30 07:14:52;;;;;;;25.03;14.93;;;13.60;99.90;;;;;;5051136;28;20290;-78
2022/10/30 07:17:18;;;;;;;19.00;14.23;;;13.60;99.90;;;;;;5052178;28;20224;-78
2022/10/30 07:19:45;;;;;;;21.30;14.33;;;13.60;99.90;;;;;;5033099;28;20202;-78
2022/10/30 07:22:12;;;;;;;22.10;13.77;;;13.70;99.90;;;;;;5031646;28;20202;-78
2022/10/30 07:24:39;;;;;;;23.60;13.88;;;13.70;99.90;;;;;;5032903;28;20220;-77
2022/10/30 07:27:06;;;;;;;20.23;12.87;;;13.70;99.90;;;;;;5031762;28;20202;-77
2022/10/30 07:29:32;;;;;;;23.97;15.13;;;13.80;99.90;;;;;;5032580;28;20222;-78
2022/10/30 07:32:01;;;;;;;18.87;13.60;;;13.80;99.90;;;;;;5038465;28;20198;-77
2022/10/30 07:34:27;;;;;;;21.07;13.47;;;13.80;99.90;;;;;;5036564;28;20296;-77
2022/10/30 07:36:54;;;;;;;21.77;13.67;;;13.90;99.90;;;;;;5051029;28;20407;-79
2022/10/30 07:39:21;;;;;;;18.53;13.27;;;13.90;99.90;;;;;;5051552;28;20186;-78
2022/10/30 07:41:49;;;;;;;23.30;14.63;;;13.90;99.90;;;;;;5050991;28;20218;-77
2022/10/30 07:44:16;;;;;;;28.73;14.40;;;14.00;99.90;;;;;;5044592;28;20209;-79
2022/10/30 07:46:43;;;;;;;22.37;14.27;;;14.00;99.90;;;;;;5051834;28;20243;-77
2022/10/30 07:49:11;;;;;;;18.97;13.57;;;14.00;99.90;;;;;;5053450;28;20630;-78
2022/10/30 07:51:38;;;;;;;22.97;14.13;;;14.00;99.90;;;;;;5055480;28;20212;-76
2022/10/30 07:54:05;;;;;;;17.80;13.13;;;14.10;99.90;;;;;;5055893;28;20253;-78
2022/10/30 07:56:32;;;;;;;17.77;12.90;;;14.10;99.90;;;;;;5055572;28;20197;-78
2022/10/30 07:58:59;;;;;;;17.87;12.63;;;14.10;99.90;;;;;;5056450;28;20621;-77
2022/10/30 08:01:26;;;;;;;16.38;12.38;;;14.10;99.90;;;;;;5056414;28;20245;-77
2022/10/30 08:03:52;;;;;;;18.00;13.70;;;14.10;99.90;;;;;;5054704;28;20198;-77
2022/10/30 08:06:21;;;;;;;20.80;14.13;;;14.20;99.90;;;;;;5056613;28;20206;-77
2022/10/30 08:08:48;;;;;;;18.77;12.80;;;14.20;99.90;;;;;;5052351;28;20296;-77
2022/10/30 08:11:14;;;;;;;15.18;11.85;;;14.30;99.90;;;;;;5056457;28;20205;-77
2022/10/30 08:13:41;;;;;;;23.42;15.45;;;14.40;99.90;;;;;;5044961;28;20206;-76
2022/10/30 08:16:08;;;;;;;23.10;13.88;;;14.40;99.90;;;;;;5037241;28;20197;-78
2022/10/30 08:18:37;;;;;;;17.17;12.30;;;14.50;99.90;;;;;;5048090;28;20198;-78
2022/10/30 08:21:04;;;;;;;16.35;11.45;;;14.50;99.90;;;;;;5057818;28;20243;-76
2022/10/30 08:23:32;;;;;;;17.40;12.53;;;14.60;99.90;;;;;;5053405;28;20211;-77
2022/10/30 08:26:00;;;;;;;19.37;12.73;;;14.60;99.90;;;;;;5037475;28;20197;-77
2022/10/30 08:28:27;;;;;;;19.47;13.73;;;14.70;99.90;;;;;;5038124;28;20206;-77
2022/10/30 08:30:54;;;;;;;20.05;14.73;;;14.80;99.90;;;;;;5037017;28;20217;-77
2022/10/30 08:33:20;;;;;;;25.10;15.38;;;14.90;99.90;;;;;;5037611;28;20207;-78
2022/10/30 08:35:49;;;;;;;20.77;14.18;;;14.90;99.90;;;;;;5038008;28;20218;-77
2022/10/30 08:38:16;;;;;;;21.00;13.37;;;15.00;99.90;;;;;;5037065;28;20202;-76
2022/10/30 08:40:44;;;;;;;19.98;14.15;;;15.00;99.90;;;;;;5037501;28;20634;-77
2022/10/30 08:43:11;;;;;;;24.73;14.60;;;15.10;99.90;;;;;;5037941;28;20209;-77
2022/10/30 08:45:38;;;;;;;20.80;14.65;;;15.10;99.90;;;;;;5037026;28;20507;-77
2022/10/30 08:48:06;;;;;;;22.60;14.93;;;15.20;99.90;;;;;;5037189;28;20214;-77
2022/10/30 08:50:34;;;;;;;27.95;15.73;;;15.30;99.90;;;;;;5037573;28;20598;-78
2022/10/30 08:53:01;;;;;;;25.02;14.20;;;15.40;99.90;;;;;;5036738;28;20232;-76
2022/10/30 08:55:28;;;;;;;21.95;13.80;;;15.40;99.90;;;;;;5037556;28;20201;-77
2022/10/30 08:57:57;;;;;;;22.10;14.10;;;15.50;99.90;;;;;;5034766;28;20586;-77
2022/10/30 09:00:24;;;;;;;19.20;13.57;;;15.60;99.90;;;;;;5033841;28;20543;-77
2022/10/30 09:02:51;;;;;;;21.10;12.98;;;15.60;99.90;;;;;;5034220;28;20203;-78
2022/10/30 09:05:19;;;;;;;17.08;11.70;;;15.70;99.90;;;;;;5033638;28;20281;-77
2022/10/30 09:07:46;;;;;;;25.67;12.27;;;15.80;99.90;;;;;;5034108;28;20211;-77
2022/10/30 09:10:13;;;;;;;19.35;13.48;;;15.80;99.90;;;;;;5034640;28;20198;-77
2022/10/30 09:12:41;;;;;;;17.73;12.43;;;15.90;99.90;;;;;;5034144;28;20195;-79
2022/10/30 09:15:10;;;;;;;18.35;11.95;;;15.90;99.90;;;;;;5034047;28;20210;-79
2022/10/30 09:17:36;;;;;;;19.33;13.00;;;16.00;99.90;;;;;;5033768;28;20206;-77
2022/10/30 09:20:04;;;;;;;14.90;11.55;;;16.00;99.90;;;;;;5033403;28;20202;-77
2022/10/30 09:22:31;;;;;;;18.92;13.20;;;16.10;99.90;;;;;;5049470;28;20619;-78
2022/10/30 09:24:58;;;;;;;19.02;13.23;;;16.20;99.90;;;;;;5051444;28;20198;-78
2022/10/30 09:27:24;;;;;;;21.25;12.30;;;16.20;99.90;;;;;;5053475;28;20206;-78
2022/10/30 09:29:51;;;;;;;19.35;12.65;;;16.20;99.90;;;;;;5053955;28;20275;-77
2022/10/30 09:32:19;;;;;;;17.38;11.00;;;16.30;99.90;;;;;;5053672;28;20198;-78
2022/10/30 09:34:46;;;;;;;20.75;11.55;;;16.30;99.90;;;;;;5033890;28;20202;-77
2022/10/30 09:37:13;;;;;;;19.55;11.55;;;16.40;99.90;;;;;;5035084;28;20198;-78
2022/10/30 09:39:40;;;;;;;19.70;11.23;;;16.50;99.90;;;;;;5032978;28;20198;-78
2022/10/30 09:42:35;;;;;;;15.27;10.82;;;16.60;99.90;;;;;;5032499;28;20222;-78
2022/10/30 09:45:27;;;;;;;18.15;11.18;;;16.60;99.90;;;;;;5033376;28;20278;-78
2022/10/30 09:48:09;;;;;;;18.55;11.70;;;16.70;99.90;;;;;;5033385;28;20203;-77
2022/10/30 09:50:42;;;;;;;18.35;11.85;;;16.80;99.90;;;;;;5033786;28;20283;-78
2022/10/30 09:53:16;;;;;;;19.23;10.88;;;17.00;99.90;;;;;;5051718;28;20240;-78
2022/10/30 09:55:51;;;;;;;18.42;10.55;;;17.00;99.90;;;;;;5042121;28;20307;-78
2022/10/30 09:58:25;;;;;;;13.40;9.57;;;17.10;99.90;;;;;;5037429;28;20592;-77
2022/10/30 10:01:02;;;;;;;17.33;10.00;;;17.30;99.90;;;;;;5052702;28;20216;-77
2022/10/30 10:03:48;;;;;;;17.15;10.88;;;17.40;99.90;;;;;;5051429;28;20192;-77
2022/10/30 10:06:19;;;;;;;13.55;9.43;;;17.50;99.90;;;;;;5033269;28;20213;-77
2022/10/30 10:08:51;;;;;;;16.95;9.90;;;17.70;99.90;;;;;;5039441;28;20729;-77
2022/10/30 10:11:23;;;;;;;11.55;8.40;;;17.80;99.90;;;;;;5036057;28;20284;-78
2022/10/30 10:13:54;;;;;;;15.48;8.73;;;17.90;99.90;;;;;;5040715;28;20277;-78
2022/10/30 10:16:24;;;;;;;12.38;8.13;;;18.00;99.90;;;;;;5035981;28;20195;-77
2022/10/30 10:19:00;;;;;;;19.77;8.93;;;18.20;99.90;;;;;;5032477;28;20202;-77
2022/10/30 10:21:28;;;;;;;12.52;7.90;;;18.30;99.90;;;;;;5032704;28;20487;-75
2022/10/30 10:23:57;;;;;;;14.07;7.57;;;18.40;99.90;;;;;;5039309;28;20205;-76
2022/10/30 10:26:29;;;;;;;13.15;7.95;;;18.60;99.90;;;;;;5038296;28;20206;-75
2022/10/30 10:29:10;;;;;;;13.00;7.25;;;18.60;99.90;;;;;;5040802;28;20277;-75
2022/10/30 10:31:47;;;;;;;15.80;8.43;;;18.80;99.90;;;;;;5040029;28;20199;-76
2022/10/30 10:34:35;;;;;;;14.13;7.85;;;18.80;99.90;;;;;;5043337;28;20197;-77
2022/10/30 10:37:11;;;;;;;16.15;8.35;;;18.90;99.90;;;;;;5052679;28;20198;-76
2022/10/30 10:39:53;;;;;;;10.98;7.15;;;18.90;99.90;;;;;;5048189;28;20220;-76
2022/10/30 10:42:29;;;;;;;13.52;7.68;;;18.90;99.90;;;;;;5048882;28;20210;-76
2022/10/30 10:45:15;;;;;;;13.60;7.32;;;18.90;99.90;;;;;;5047716;28;20204;-77
2022/10/30 10:48:14;;;;;;;15.45;8.25;;;19.00;99.90;;;;;;5060692;28;20275;-76
2022/10/30 10:50:48;;;;;;;16.70;8.40;;;19.00;99.90;;;;;;5058738;28;20187;-78
2022/10/30 10:53:20;;;;;;;17.35;7.57;;;19.00;99.90;;;;;;5042547;28;20245;-76
2022/10/30 10:55:51;;;;;;;14.88;7.75;;;19.10;99.90;;;;;;5051190;28;20197;-76
2022/10/30 10:58:27;;;;;;;12.90;7.35;;;19.10;99.90;;;;;;5031734;28;20195;-78
2022/10/30 11:00:57;;;;;;;12.63;7.35;;;19.10;99.90;;;;;;5032143;28;20213;-76
2022/10/30 11:03:32;;;;;;;14.57;8.15;;;19.20;99.90;;;;;;5042105;28;20193;-76
2022/10/30 11:06:11;;;;;;;12.93;7.78;;;19.30;99.90;;;;;;5051766;28;20196;-76
2022/10/30 11:08:38;;;;;;;13.45;7.43;;;19.30;99.90;;;;;;5048573;28;20193;-77
2022/10/30 11:11:07;;;;;;;12.75;8.13;;;19.40;99.90;;;;;;5054163;28;20293;-77
2022/10/30 11:13:36;;;;;;;13.25;7.50;;;19.40;99.90;;;;;;5047713;28;20197;-77
2022/10/30 11:16:13;;;;;;;15.63;7.68;;;19.40;99.90;;;;;;5051438;28;20629;-76
2022/10/30 11:18:42;;;;;;;13.63;7.50;;;19.40;99.90;;;;;;5051794;28;20186;-76
2022/10/30 11:21:15;;;;;;;12.25;6.90;;;19.40;99.90;;;;;;5047894;28;20201;-76
2022/10/30 11:23:44;;;;;;;13.02;6.97;;;19.40;99.90;;;;;;5031666;28;20281;-76
2022/10/30 11:26:31;;;;;;;14.15;7.72;;;19.40;99.90;;;;;;5031994;28;20202;-76
2022/10/30 11:29:05;;;;;;;12.95;7.25;;;19.40;99.90;;;;;;5031055;28;20195;-76
2022/10/30 11:31:37;;;;;;;13.23;7.60;;;19.40;99.90;;;;;;5053257;28;20186;-76
2022/10/30 11:34:20;;;;;;;11.23;7.60;;;19.40;99.90;;;;;;5056306;28;20201;-76
2022/10/30 11:36:49;;;;;;;10.07;6.80;;;19.50;99.90;;;;;;5058092;28;20189;-76
2022/10/30 11:39:19;;;;;;;16.48;8.60;;;19.50;99.90;;;;;;5063127;28;20549;-75
2022/10/30 11:41:53;;;;;;;16.02;8.68;;;19.50;99.90;;;;;;5060659;28;20213;-76
2022/10/30 11:44:21;;;;;;;16.63;8.88;;;19.50;99.90;;;;;;5060760;28;20193;-76
2022/10/30 11:46:48;;;;;;;17.63;8.48;;;19.60;99.90;;;;;;5051944;28;20194;-76
2022/10/30 11:49:27;;;;;;;18.17;9.00;;;19.60;99.90;;;;;;5051011;28;20198;-76
2022/10/30 11:51:55;;;;;;;15.20;8.88;;;19.70;99.90;;;;;;5045125;28;20587;-76
2022/10/30 11:54:22;;;;;;;12.73;7.32;;;19.70;99.90;;;;;;5050809;28;20230;-76
2022/10/30 11:56:50;;;;;;;11.43;7.13;;;19.70;99.90;;;;;;5051001;28;20204;-76
2022/10/30 11:59:21;;;;;;;15.38;8.52;;;19.70;99.90;;;;;;5049625;28;20523;-76
2022/10/30 12:02:03;;;;;;;14.80;8.23;;;19.70;99.90;;;;;;5057547;28;20315;-76
2022/10/30 12:04:31;;;;;;;14.45;8.07;;;19.70;99.90;;;;;;5059275;28;20204;-76
2022/10/30 12:07:19;;;;;;;10.65;7.18;;;19.60;99.90;;;;;;5060468;28;20205;-76
2022/10/30 12:09:47;;;;;;;13.95;8.70;;;19.60;99.90;;;;;;5061666;28;20200;-76
2022/10/30 12:12:24;;;;;;;17.08;9.05;;;19.60;99.90;;;;;;5052847;28;20493;-76
2022/10/30 12:14:52;;;;;;;12.65;7.28;;;19.60;99.90;;;;;;5054065;28;20279;-76
2022/10/30 12:17:20;;;;;;;13.20;8.18;;;19.60;99.90;;;;;;5055701;28;20194;-77
2022/10/30 12:19:49;;;;;;;13.50;7.72;;;19.60;99.90;;;;;;5061903;28;20455;-76
2022/10/30 12:22:29;;;;;;;14.68;8.65;;;19.60;99.90;;;;;;5054168;28;20224;-76
2022/10/30 12:24:57;;;;;;;14.30;8.80;;;19.60;99.90;;;;;;5060549;28;20209;-76
2022/10/30 12:27:24;;;;;;;16.20;7.97;;;19.60;99.90;;;;;;5062439;28;20201;-76
2022/10/30 12:30:03;;;;;;;12.60;8.02;;;19.50;99.90;;;;;;5057760;28;20285;-76
2022/10/30 12:32:40;;;;;;;12.48;7.60;;;19.60;99.90;;;;;;5064737;28;20562;-76
2022/10/30 12:35:22;;;;;;;11.40;7.07;;;19.50;99.90;;;;;;5071775;28;20197;-76
2022/10/30 12:37:53;;;;;;;12.40;6.45;;;19.50;99.90;;;;;;5059203;28;20204;-76
2022/10/30 12:40:25;;;;;;;9.20;6.90;;;19.50;99.90;;;;;;5055071;28;20190;-76
2022/10/30 12:42:58;;;;;;;13.10;8.15;;;19.50;99.90;;;;;;5054632;28;20312;-77
2022/10/30 12:45:31;;;;;;;20.42;11.15;;;19.50;99.90;;;;;;5043338;28;20202;-76